createdAt,value
2024-03-28T00:01:28.816Z,95157.20
2024-03-28T00:03:56.664Z,95166.00
2024-03-28T00:06:24.808Z,95164.80
2024-03-28T00:08:52.794Z,95165.40
2024-03-28T00:11:20.698Z,95161.20
2024-03-28T00:13:48.543Z,95160.00
2024-03-28T00:16:16.510Z,95161.60
2024-03-28T00:18:44.405Z,95153.00
2024-03-28T00:21:12.251Z,95152.40
2024-03-28T00:23:40.098Z,95146.80
2024-03-28T00:26:09.430Z,95146.00
2024-03-28T00:28:37.345Z,95141.40
2024-03-28T00:31:10.594Z,95134.20
2024-03-28T00:33:38.464Z,95131.00
2024-03-28T00:36:07.207Z,95128.20
2024-03-28T00:38:35.298Z,95126.20
2024-03-28T00:41:03.945Z,95125.60
2024-03-28T00:43:31.905Z,95123.40
2024-03-28T00:46:03.295Z,95124.00
2024-03-28T00:48:31.348Z,95120.80
2024-03-28T00:51:00.130Z,95120.20
2024-03-28T00:53:28.667Z,95120.40
2024-03-28T00:55:58.772Z,95122.40
2024-03-28T00:58:27.958Z,95112.00
2024-03-28T01:00:55.800Z,95109.60
2024-03-28T01:03:23.808Z,95118.00
2024-03-28T01:05:58.550Z,95114.60
2024-03-28T01:08:27.433Z,95116.80
2024-03-28T01:10:55.630Z,95111.60
2024-03-28T01:13:23.497Z,95111.00
2024-03-28T01:15:51.626Z,95115.20
2024-03-28T01:18:19.618Z,95116.20
2024-03-28T01:20:47.685Z,95109.60
2024-03-28T01:23:15.610Z,95109.40
2024-03-28T01:25:43.554Z,95102.00
2024-03-28T01:28:13.919Z,95094.40
2024-03-28T01:30:42.048Z,95099.00
2024-03-28T01:33:10.143Z,95101.20
2024-03-28T01:35:38.194Z,95097.60
2024-03-28T01:38:06.146Z,95100.20
2024-03-28T01:40:34.214Z,95098.20
2024-03-28T01:43:08.435Z,95098.40
2024-03-28T01:45:36.266Z,95095.20
2024-03-28T01:48:04.807Z,95089.00
2024-03-28T01:50:32.885Z,95089.00
2024-03-28T01:53:01.016Z,95087.20
2024-03-28T01:55:29.195Z,95084.00
2024-03-28T01:58:00.821Z,95078.20
2024-03-28T02:00:29.473Z,95077.40
2024-03-28T02:02:58.153Z,95083.40
2024-03-28T02:05:26.083Z,95073.60
2024-03-28T02:07:54.135Z,95062.40
2024-03-28T02:10:22.929Z,95064.00
2024-03-28T02:12:50.897Z,95052.00
2024-03-28T02:15:18.837Z,95048.20
2024-03-28T02:17:50.146Z,95048.20
2024-03-28T02:20:18.679Z,95049.80
2024-03-28T02:22:46.808Z,95054.20
2024-03-28T02:25:15.116Z,95061.00
2024-03-28T02:27:43.283Z,95055.00
2024-03-28T02:30:12.525Z,95052.00
2024-03-28T02:32:40.703Z,95062.20
2024-03-28T02:35:09.365Z,95066.00
2024-03-28T02:37:37.397Z,95059.80
2024-03-28T02:40:06.364Z,95053.00
2024-03-28T02:42:34.515Z,95041.60
2024-03-28T02:45:02.487Z,95048.40
2024-03-28T02:47:30.474Z,95051.00
2024-03-28T02:49:58.436Z,95044.60
2024-03-28T02:52:26.614Z,95055.20
2024-03-28T02:54:54.535Z,95042.40
2024-03-28T02:57:23.561Z,95041.40
2024-03-28T02:59:51.514Z,95044.80
2024-03-28T03:02:19.609Z,95041.60
2024-03-28T03:04:47.839Z,95040.40
2024-03-28T03:07:17.036Z,95036.80
2024-03-28T03:09:44.938Z,95027.80
2024-03-28T03:12:13.221Z,95025.00
2024-03-28T03:14:41.134Z,95014.40
2024-03-28T03:17:10.577Z,95013.00
2024-03-28T03:19:38.798Z,95010.20
2024-03-28T03:22:07.354Z,95009.60
2024-03-28T03:24:40.016Z,95005.40
2024-03-28T03:27:17.323Z,94996.40
2024-03-28T03:30:04.442Z,94994.60
2024-03-28T03:32:50.884Z,94979.80
2024-03-28T03:35:18.975Z,94977.80
2024-03-28T03:37:47.600Z,94980.40
2024-03-28T03:40:15.897Z,94985.00
2024-03-28T03:42:43.863Z,94982.40
2024-03-28T03:45:11.912Z,94983.40
2024-03-28T03:47:39.833Z,94975.60
2024-03-28T03:50:08.420Z,94983.00
2024-03-28T03:52:36.329Z,94988.00
2024-03-28T03:55:04.759Z,94984.60
2024-03-28T03:57:32.706Z,94973.60
2024-03-28T04:00:00.621Z,94983.40
2024-03-28T04:02:28.962Z,94983.20
2024-03-28T04:04:57.025Z,94982.20
2024-03-28T04:07:25.064Z,94985.00
2024-03-28T04:09:53.110Z,94994.40
2024-03-28T04:12:21.080Z,94987.20
2024-03-28T04:14:49.192Z,94972.40
2024-03-28T04:17:17.358Z,94960.00
2024-03-28T04:19:45.661Z,94952.00
2024-03-28T04:22:13.768Z,94961.80
2024-03-28T04:24:41.727Z,94970.60
2024-03-28T04:27:09.855Z,94959.20
2024-03-28T04:29:52.066Z,94957.80
2024-03-28T04:32:24.194Z,94956.80
2024-03-28T04:34:52.193Z,94958.80
2024-03-28T04:37:20.675Z,94956.00
2024-03-28T04:39:48.626Z,94957.20
2024-03-28T04:42:16.490Z,94962.40
2024-03-28T04:44:44.316Z,94964.00
2024-03-28T04:47:12.279Z,94960.60
2024-03-28T04:49:40.323Z,94958.60
2024-03-28T04:52:08.483Z,94955.20
2024-03-28T04:54:36.566Z,94954.80
2024-03-28T04:57:06.558Z,94958.20
2024-03-28T04:59:35.095Z,94954.40
2024-03-28T05:02:03.193Z,94952.60
2024-03-28T05:04:31.350Z,94951.00
2024-03-28T05:06:59.339Z,94951.00
2024-03-28T05:09:28.130Z,94940.60
2024-03-28T05:11:56.069Z,94940.40
2024-03-28T05:14:24.010Z,94936.40
2024-03-28T05:16:52.994Z,94940.60
2024-03-28T05:19:22.116Z,94947.80
2024-03-28T05:21:50.033Z,94947.40
2024-03-28T05:24:17.943Z,94935.40
2024-03-28T05:26:45.850Z,94931.40
2024-03-28T05:29:13.733Z,94934.60
2024-03-28T05:31:41.743Z,94938.60
2024-03-28T05:34:09.618Z,94940.60
2024-03-28T05:36:38.389Z,94938.00
2024-03-28T05:39:06.308Z,94938.20
2024-03-28T05:41:37.711Z,94937.80
2024-03-28T05:44:06.090Z,94934.00
2024-03-28T05:46:34.232Z,94936.40
2024-03-28T05:49:02.114Z,94946.00
2024-03-28T05:51:30.022Z,94944.00
2024-03-28T05:53:57.861Z,94947.60
2024-03-28T05:56:26.245Z,94958.60
2024-03-28T05:58:54.161Z,94961.80
2024-03-28T06:01:22.335Z,94967.20
2024-03-28T06:03:50.306Z,94975.40
2024-03-28T06:06:18.446Z,94982.60
2024-03-28T06:08:46.606Z,94974.00
2024-03-28T06:11:14.701Z,94973.80
2024-03-28T06:13:42.569Z,94979.00
2024-03-28T06:16:10.623Z,94976.60
2024-03-28T06:18:38.685Z,94976.60
2024-03-28T06:21:06.782Z,94979.40
2024-03-28T06:23:35.005Z,94982.80
2024-03-28T06:26:03.599Z,94992.20
2024-03-28T06:28:32.372Z,94994.40
2024-03-28T06:31:00.715Z,95010.40
2024-03-28T06:33:28.787Z,95034.40
2024-03-28T06:35:56.955Z,95058.40
2024-03-28T06:38:24.938Z,95060.00
2024-03-28T06:41:02.433Z,95065.20
2024-03-28T06:43:30.371Z,95076.80
2024-03-28T06:45:58.289Z,95091.40
2024-03-28T06:48:26.176Z,95099.00
2024-03-28T06:50:54.080Z,95108.80
2024-03-28T06:53:22.052Z,95112.60
2024-03-28T06:55:49.990Z,95115.20
2024-03-28T06:58:17.841Z,95122.40
2024-03-28T07:00:45.792Z,95144.00
2024-03-28T07:03:14.077Z,95171.60
2024-03-28T07:05:42.093Z,95186.20
2024-03-28T07:08:09.987Z,95188.40
2024-03-28T07:10:38.173Z,95197.80
2024-03-28T07:13:06.610Z,95215.20
2024-03-28T07:15:34.829Z,95228.40
2024-03-28T07:18:02.793Z,95252.00
2024-03-28T07:20:30.819Z,95254.00
2024-03-28T07:22:58.901Z,95246.60
2024-03-28T07:25:29.363Z,95258.80
2024-03-28T07:27:58.341Z,95246.40
2024-03-28T07:30:26.197Z,95224.60
2024-03-28T07:32:54.017Z,95222.20
2024-03-28T07:35:21.857Z,95208.80
2024-03-28T07:37:49.804Z,95202.20
2024-03-28T07:40:17.790Z,95212.60
2024-03-28T07:42:47.022Z,95226.60
2024-03-28T07:45:15.014Z,95226.40
2024-03-28T07:47:42.945Z,95235.60
2024-03-28T07:50:12.776Z,95231.80
2024-03-28T07:52:40.761Z,95237.80
2024-03-28T07:55:09.653Z,95248.00
2024-03-28T07:57:37.669Z,95250.40
2024-03-28T08:00:07.368Z,95262.00
2024-03-28T08:02:35.323Z,95261.60
2024-03-28T08:05:03.622Z,95274.60
2024-03-28T08:07:31.659Z,95278.40
2024-03-28T08:09:59.639Z,95283.80
2024-03-28T08:12:28.247Z,95276.00
2024-03-28T08:14:56.230Z,95275.00
2024-03-28T08:17:24.172Z,95267.60
2024-03-28T08:19:52.084Z,95260.80
2024-03-28T08:22:20.890Z,95252.00
2024-03-28T08:24:48.872Z,95243.60
2024-03-28T08:27:16.747Z,95237.60
2024-03-28T08:29:45.606Z,95238.60
2024-03-28T08:32:13.589Z,95238.60
2024-03-28T08:34:41.872Z,95245.60
2024-03-28T08:37:10.338Z,95243.80
2024-03-28T08:39:38.537Z,95247.00
2024-03-28T08:42:06.464Z,95252.00
2024-03-28T08:44:34.396Z,95260.40
2024-03-28T08:47:03.362Z,95277.60
2024-03-28T08:49:31.358Z,95292.60
2024-03-28T08:51:59.324Z,95302.00
2024-03-28T08:54:27.352Z,95313.40
2024-03-28T08:56:55.189Z,95329.40
2024-03-28T08:59:23.076Z,95347.80
2024-03-28T09:01:51.350Z,95367.20
2024-03-28T09:04:20.483Z,95373.20
2024-03-28T09:06:48.511Z,95369.80
2024-03-28T09:09:16.979Z,95372.40
2024-03-28T09:11:45.875Z,95376.60
2024-03-28T09:14:13.675Z,95382.60
2024-03-28T09:16:41.673Z,95388.80
2024-03-28T09:19:09.622Z,95397.00
2024-03-28T09:21:37.607Z,95407.60
2024-03-28T09:24:08.824Z,95425.60
2024-03-28T09:26:36.825Z,95426.60
2024-03-28T09:29:04.900Z,95423.60
2024-03-28T09:31:33.887Z,95437.20
2024-03-28T09:34:01.934Z,95457.60
2024-03-28T09:36:30.029Z,95463.20
2024-03-28T09:38:58.030Z,95463.40
2024-03-28T09:41:30.648Z,95470.60
2024-03-28T09:44:01.518Z,95473.40
2024-03-28T09:46:30.603Z,95467.40
2024-03-28T09:48:59.909Z,95449.40
2024-03-28T09:51:28.119Z,95446.60
2024-03-28T09:53:59.044Z,95448.40
2024-03-28T09:56:26.990Z,95430.00
2024-03-28T09:58:55.863Z,95425.40
2024-03-28T10:01:23.785Z,95410.80
2024-03-28T10:04:16.813Z,95429.80
2024-03-28T10:06:48.539Z,95434.20
2024-03-28T10:09:16.578Z,95434.00
2024-03-28T10:11:44.663Z,95455.80
2024-03-28T10:14:17.596Z,95472.00
2024-03-28T10:16:49.944Z,95483.40
2024-03-28T10:19:19.413Z,95490.80
2024-03-28T10:21:47.307Z,95490.00
2024-03-28T10:24:18.590Z,95502.20
2024-03-28T10:26:46.707Z,95515.80
2024-03-28T10:29:15.578Z,95514.40
2024-03-28T10:31:43.608Z,95513.80
2024-03-28T10:34:15.668Z,95507.20
2024-03-28T10:36:43.706Z,95518.80
2024-03-28T10:39:12.922Z,95534.20
2024-03-28T10:41:41.002Z,95532.20
2024-03-28T10:44:10.942Z,95516.00
2024-03-28T10:46:40.047Z,95511.00
2024-03-28T10:49:08.064Z,95505.60
2024-03-28T10:51:38.084Z,95513.40
2024-03-28T10:54:22.192Z,95514.80
2024-03-28T10:56:51.162Z,95516.40
2024-03-28T10:59:19.180Z,95515.00
2024-03-28T11:01:46.992Z,95511.40
2024-03-28T11:04:17.829Z,95504.40
2024-03-28T11:06:46.126Z,95505.60
2024-03-28T11:09:14.873Z,95501.80
2024-03-28T11:11:42.729Z,95503.20
2024-03-28T11:14:10.577Z,95493.40
2024-03-28T11:16:38.800Z,95492.00
2024-03-28T11:19:07.368Z,95505.20
2024-03-28T11:21:35.314Z,95499.40
2024-03-28T11:24:03.684Z,95497.40
2024-03-28T11:26:31.649Z,95489.80
2024-03-28T11:29:03.904Z,95488.80
2024-03-28T11:31:32.036Z,95491.60
2024-03-28T11:34:00.370Z,95504.40
2024-03-28T11:36:29.127Z,95496.40
2024-03-28T11:38:57.097Z,95500.80
2024-03-28T11:41:25.814Z,95501.40
2024-03-28T11:43:55.061Z,95514.60
2024-03-28T11:46:30.690Z,95506.40
2024-03-28T11:49:00.305Z,95511.60
2024-03-28T11:51:28.591Z,95515.20
2024-03-28T11:54:03.472Z,95505.40
2024-03-28T11:56:32.850Z,95502.20
2024-03-28T11:59:01.008Z,95514.80
2024-03-28T12:01:28.979Z,95522.60
2024-03-28T12:03:56.927Z,95523.00
2024-03-28T12:06:24.856Z,95520.40
2024-03-28T12:08:52.770Z,95515.00
2024-03-28T12:11:20.765Z,95508.20
2024-03-28T12:13:49.677Z,95509.00
2024-03-28T12:16:17.817Z,95517.40
2024-03-28T12:18:46.000Z,95511.60
2024-03-28T12:21:16.217Z,95507.80
2024-03-28T12:23:44.253Z,95515.20
2024-03-28T12:26:19.374Z,95513.40
2024-03-28T12:28:47.686Z,95528.20
2024-03-28T12:31:22.590Z,95523.60
2024-03-28T12:33:51.084Z,95528.60
2024-03-28T12:36:26.767Z,95528.60
2024-03-28T12:38:57.265Z,95537.00
2024-03-28T12:41:25.553Z,95540.20
2024-03-28T12:43:58.461Z,95546.80
2024-03-28T12:46:26.612Z,95552.60
2024-03-28T12:48:54.510Z,95541.60
2024-03-28T12:51:22.415Z,95546.00
2024-03-28T12:53:50.405Z,95548.00
2024-03-28T12:56:18.689Z,95541.40
2024-03-28T12:58:47.309Z,95550.60
2024-03-28T13:01:15.252Z,95553.40
2024-03-28T13:03:43.232Z,95562.60
2024-03-28T13:06:11.147Z,95558.00
2024-03-28T13:08:39.087Z,95560.40
2024-03-28T13:11:07.935Z,95557.60
2024-03-28T13:13:35.900Z,95560.80
2024-03-28T13:16:04.915Z,95573.40
2024-03-28T13:18:32.750Z,95572.20
2024-03-28T13:21:02.121Z,95558.20
2024-03-28T13:23:30.061Z,95563.40
2024-03-28T13:26:10.512Z,95565.20
2024-03-28T13:28:46.111Z,95557.80
2024-03-28T13:31:14.029Z,95559.60
2024-03-28T13:33:41.909Z,95569.20
2024-03-28T13:36:10.114Z,95561.60
2024-03-28T13:38:38.140Z,95563.80
2024-03-28T13:41:06.001Z,95556.60
2024-03-28T13:43:33.981Z,95575.00
2024-03-28T13:46:01.822Z,95575.40
2024-03-28T13:48:33.812Z,95574.40
2024-03-28T13:51:01.841Z,95573.20
2024-03-28T13:53:32.875Z,95580.80
2024-03-28T13:56:00.777Z,95579.80
2024-03-28T13:58:29.159Z,95584.00
2024-03-28T14:00:57.561Z,95585.00
2024-03-28T14:03:25.636Z,95588.40
2024-03-28T14:06:03.585Z,95588.80
2024-03-28T14:08:31.985Z,95595.60
2024-03-28T14:10:59.981Z,95599.80
2024-03-28T14:13:28.023Z,95606.20
2024-03-28T14:15:56.288Z,95610.40
2024-03-28T14:18:24.308Z,95612.20
2024-03-28T14:20:52.215Z,95617.80
2024-03-28T14:23:20.269Z,95621.80
2024-03-28T14:25:48.115Z,95623.40
2024-03-28T14:28:16.008Z,95626.00
2024-03-28T14:30:44.057Z,95624.80
2024-03-28T14:33:11.999Z,95633.20
2024-03-28T14:35:40.004Z,95631.20
2024-03-28T14:38:07.974Z,95629.00
2024-03-28T14:40:39.291Z,95634.20
2024-03-28T14:43:07.224Z,95641.00
2024-03-28T14:45:36.034Z,95643.00
2024-03-28T14:48:04.581Z,95640.60
2024-03-28T14:50:32.804Z,95642.80
2024-03-28T14:53:00.772Z,95646.80
2024-03-28T14:55:28.796Z,95643.60
2024-03-28T14:57:58.706Z,95634.60
2024-03-28T15:00:27.806Z,95634.80
2024-03-28T15:02:55.705Z,95637.80
2024-03-28T15:05:23.645Z,95636.40
2024-03-28T15:07:54.443Z,95631.00
2024-03-28T15:10:22.343Z,95630.80
2024-03-28T15:12:50.277Z,95625.40
2024-03-28T15:15:18.370Z,95618.60
2024-03-28T15:17:46.322Z,95627.20
2024-03-28T15:20:30.398Z,95626.00
2024-03-28T15:22:58.402Z,95626.60
2024-03-28T15:25:30.131Z,95626.80
2024-03-28T15:27:59.282Z,95618.40
2024-03-28T15:30:28.144Z,95614.40
2024-03-28T15:32:56.801Z,95624.00
2024-03-28T15:35:24.790Z,95626.40
2024-03-28T15:37:53.250Z,95631.40
2024-03-28T15:40:21.577Z,95632.20
2024-03-28T15:42:49.684Z,95619.40
2024-03-28T15:45:17.758Z,95616.00
2024-03-28T15:47:46.029Z,95619.00
2024-03-28T15:50:16.603Z,95620.00
2024-03-28T15:52:48.538Z,95613.40
2024-03-28T15:55:16.776Z,95605.40
2024-03-28T15:57:44.791Z,95600.60
2024-03-28T16:00:13.283Z,95613.80
2024-03-28T16:02:42.278Z,95619.20
2024-03-28T16:05:10.373Z,95626.40
2024-03-28T16:07:38.234Z,95627.60
2024-03-28T16:10:06.471Z,95623.00
2024-03-28T16:12:36.244Z,95613.80
2024-03-28T16:15:04.480Z,95604.80
2024-03-28T16:17:32.483Z,95605.00
2024-03-28T16:20:01.137Z,95608.80
2024-03-28T16:22:29.180Z,95602.60
2024-03-28T16:24:57.121Z,95608.80
2024-03-28T16:27:25.053Z,95617.40
2024-03-28T16:29:53.173Z,95612.00
2024-03-28T16:32:21.032Z,95618.40
2024-03-28T16:34:49.575Z,95623.00
2024-03-28T16:37:17.520Z,95623.40
2024-03-28T16:39:45.477Z,95627.20
2024-03-28T16:42:13.424Z,95635.60
2024-03-28T16:44:41.316Z,95626.40
2024-03-28T16:47:12.393Z,95625.40
2024-03-28T16:49:40.476Z,95627.40
2024-03-28T16:52:09.146Z,95623.60
2024-03-28T16:54:37.293Z,95628.60
2024-03-28T16:57:05.661Z,95633.40
2024-03-28T16:59:33.668Z,95630.60
2024-03-28T17:02:01.502Z,95635.20
2024-03-28T17:04:31.632Z,95638.40
2024-03-28T17:06:59.679Z,95637.20
2024-03-28T17:09:27.932Z,95635.60
2024-03-28T17:11:55.894Z,95642.60
2024-03-28T17:14:23.878Z,95641.80
2024-03-28T17:16:51.732Z,95648.00
2024-03-28T17:19:20.383Z,95650.80
2024-03-28T17:21:48.402Z,95647.20
2024-03-28T17:24:19.515Z,95654.20
2024-03-28T17:26:47.467Z,95653.60
2024-03-28T17:29:16.538Z,95652.00
2024-03-28T17:31:44.511Z,95653.60
2024-03-28T17:34:12.664Z,95651.40
2024-03-28T17:36:40.798Z,95652.00
2024-03-28T17:39:08.690Z,95657.20
2024-03-28T17:41:37.448Z,95655.80
2024-03-28T17:44:05.491Z,95660.40
2024-03-28T17:46:33.484Z,95665.40
2024-03-28T17:49:02.062Z,95664.80
2024-03-28T17:51:30.117Z,95661.20
2024-03-28T17:54:00.212Z,95666.00
2024-03-28T17:56:29.300Z,95676.00
2024-03-28T17:58:57.213Z,95668.20
2024-03-28T18:01:25.086Z,95674.40
2024-03-28T18:03:53.611Z,95671.60
2024-03-28T18:06:21.547Z,95678.80
2024-03-28T18:08:49.508Z,95681.60
2024-03-28T18:11:17.881Z,95679.20
2024-03-28T18:13:49.522Z,95680.20
2024-03-28T18:16:18.887Z,95677.00
2024-03-28T18:18:46.900Z,95680.40
2024-03-28T18:21:16.035Z,95684.20
2024-03-28T18:23:44.024Z,95681.60
2024-03-28T18:26:12.467Z,95680.00
2024-03-28T18:28:40.386Z,95684.40
2024-03-28T18:31:08.376Z,95684.60
2024-03-28T18:33:37.071Z,95677.40
2024-03-28T18:36:05.414Z,95672.40
2024-03-28T18:38:33.287Z,95674.40
2024-03-28T18:41:09.004Z,95667.60
2024-03-28T18:43:38.428Z,95672.20
2024-03-28T18:46:06.560Z,95679.00
2024-03-28T18:48:34.671Z,95675.40
2024-03-28T18:51:02.465Z,95672.80
2024-03-28T18:53:30.522Z,95669.60
2024-03-28T18:56:02.102Z,95666.20
2024-03-28T18:58:30.040Z,95670.00
2024-03-28T19:00:58.040Z,95679.40
2024-03-28T19:03:27.720Z,95676.40
2024-03-28T19:05:56.258Z,95684.00
2024-03-28T19:08:24.226Z,95682.40
2024-03-28T19:10:52.366Z,95685.60
2024-03-28T19:13:20.483Z,95686.40
2024-03-28T19:15:52.312Z,95687.00
2024-03-28T19:18:22.933Z,95696.80
2024-03-28T19:20:51.016Z,95703.20
2024-03-28T19:23:18.956Z,95706.00
2024-03-28T19:25:46.953Z,95712.60
2024-03-28T19:28:14.934Z,95708.00
2024-03-28T19:30:44.258Z,95707.40
2024-03-28T19:33:12.331Z,95706.00
2024-03-28T19:35:40.796Z,95706.80
2024-03-28T19:38:11.133Z,95707.80
2024-03-28T19:40:39.126Z,95708.00
2024-03-28T19:43:07.046Z,95721.40
2024-03-28T19:45:36.053Z,95726.00
2024-03-28T19:48:05.357Z,95725.00
2024-03-28T19:50:35.201Z,95730.20
2024-03-28T19:53:03.837Z,95730.40
2024-03-28T19:55:32.208Z,95742.20
2024-03-28T19:58:00.257Z,95748.60
2024-03-28T20:00:29.287Z,95748.60
2024-03-28T20:02:57.702Z,95742.80
2024-03-28T20:05:26.418Z,95743.80
2024-03-28T20:07:54.967Z,95745.40
2024-03-28T20:10:22.982Z,95736.20
2024-03-28T20:12:51.204Z,95733.20
2024-03-28T20:15:19.096Z,95740.00
2024-03-28T20:17:47.286Z,95730.40
2024-03-28T20:20:15.198Z,95726.60
2024-03-28T20:22:43.214Z,95725.60
2024-03-28T20:25:14.081Z,95721.20
2024-03-28T20:27:42.231Z,95724.80
2024-03-28T20:30:12.286Z,95725.20
2024-03-28T20:32:40.104Z,95720.80
2024-03-28T20:35:08.322Z,95717.00
2024-03-28T20:37:36.312Z,95707.40
2024-03-28T20:40:04.612Z,95707.80
2024-03-28T20:42:32.660Z,95709.80
2024-03-28T20:45:01.895Z,95705.40
2024-03-28T20:47:29.791Z,95695.00
2024-03-28T20:50:01.013Z,95696.40
2024-03-28T20:52:29.042Z,95693.80
2024-03-28T20:54:56.987Z,95691.80
2024-03-28T20:57:25.645Z,95692.60
2024-03-28T20:59:54.679Z,95681.00
2024-03-28T21:02:23.451Z,95682.00
2024-03-28T21:04:52.523Z,95683.60
2024-03-28T21:07:39.333Z,95678.60
2024-03-28T21:10:26.150Z,95678.20
2024-03-28T21:12:54.042Z,95671.40
2024-03-28T21:15:22.099Z,95666.40
2024-03-28T21:17:50.260Z,95661.40
2024-03-28T21:20:19.432Z,95663.60
2024-03-28T21:22:47.306Z,95662.00
2024-03-28T21:25:16.124Z,95666.60
2024-03-28T21:27:44.230Z,95658.40
2024-03-28T21:30:13.278Z,95662.60
2024-03-28T21:32:42.028Z,95657.00
2024-03-28T21:35:10.060Z,95659.20
2024-03-28T21:37:38.188Z,95656.80
2024-03-28T21:40:06.772Z,95661.20
2024-03-28T21:42:34.954Z,95658.20
2024-03-28T21:45:13.780Z,95654.60
2024-03-28T21:47:44.422Z,95658.00
2024-03-28T21:50:12.463Z,95647.00
2024-03-28T21:52:40.779Z,95648.80
2024-03-28T21:55:08.941Z,95651.00
2024-03-28T21:57:36.911Z,95654.80
2024-03-28T22:00:05.774Z,95651.80
2024-03-28T22:02:33.669Z,95660.20
2024-03-28T22:05:01.830Z,95664.40
2024-03-28T22:07:29.944Z,95668.00
2024-03-28T22:09:57.934Z,95670.60
2024-03-28T22:12:25.838Z,95677.40
2024-03-28T22:14:54.087Z,95669.00
2024-03-28T22:17:22.098Z,95658.60
2024-03-28T22:19:50.294Z,95659.80
2024-03-28T22:22:18.203Z,95662.20
2024-03-28T22:24:46.175Z,95645.40
2024-03-28T22:27:14.096Z,95645.80
2024-03-28T22:29:42.416Z,95641.40
2024-03-28T22:32:10.337Z,95631.00
2024-03-28T22:34:40.254Z,95630.60
2024-03-28T22:37:08.220Z,95629.40
2024-03-28T22:39:36.254Z,95615.40
2024-03-28T22:42:05.388Z,95616.00
2024-03-28T22:44:33.280Z,95621.60
2024-03-28T22:47:01.338Z,95626.60
2024-03-28T22:49:29.413Z,95628.80
2024-03-28T22:51:57.371Z,95628.60
2024-03-28T22:54:25.415Z,95635.40
2024-03-28T22:56:53.458Z,95650.00
2024-03-28T22:59:21.542Z,95652.00
2024-03-28T23:01:49.447Z,95648.20
2024-03-28T23:04:17.483Z,95647.40
2024-03-28T23:06:46.954Z,95657.40
2024-03-28T23:09:14.911Z,95671.60
2024-03-28T23:11:42.857Z,95676.20
2024-03-28T23:14:10.860Z,95688.00
2024-03-28T23:16:38.908Z,95685.60
2024-03-28T23:19:08.754Z,95682.60
2024-03-28T23:21:37.834Z,95679.80
2024-03-28T23:24:07.363Z,95675.20
2024-03-28T23:26:35.716Z,95677.40
2024-03-28T23:29:04.889Z,95676.60
2024-03-28T23:31:34.669Z,95676.00
2024-03-28T23:34:07.143Z,95675.40
2024-03-28T23:36:35.270Z,95669.80
2024-03-28T23:39:03.363Z,95671.40
2024-03-28T23:41:31.354Z,95667.20
2024-03-28T23:43:59.406Z,95675.60
2024-03-28T23:46:27.435Z,95672.00
2024-03-28T23:48:55.943Z,95673.00
2024-03-28T23:51:23.894Z,95674.80
2024-03-28T23:53:51.820Z,95666.00
2024-03-28T23:56:19.842Z,95674.20
2024-03-28T23:58:47.876Z,95675.40
